Wilson Cadiz — 8PSY — position and weather

sailwx.info

Track history (hours):
 
Tides and Currents Weather Stations Pressure Air Temp Water Temp Dewpoint Dewpoint Depression Visibility Wind Speed Wind Dir Waves Ship Positions

Wilson Cadiz

Last reported at 2014-Nov-28 03:31 UTC. Time now 2014-Nov-29 05:08 UTC.
Position N 59°22' W 003°42'.

Length 100 m; draft 5.6 m.

Type: Ship (hazmat cat B). MMSI: 314216000.

Date/timePositionNaut miles runAvg speedWind from/ knotsBaromVisibWave heightAir tempDewpointWater temp
2014-Nov-28 03:31N 59°22' W 003°42'1111.4
2014-Nov-28 02:34N 59°13' W 003°55'1111.3
2014-Nov-28 01:33N 59°05' W 004°10'1211.6
2014-Nov-28 00:33N 58°57' W 004°26'4812.1
2014-Nov-27 20:33N 58°22' W 005°29'1111.3
2014-Nov-27 19:34N 58°12' W 005°40'1211.1
2014-Nov-27 18:27N 58°01' W 005°52'136 9.8
2014-Nov-27 04:33N 55°49' W 006°54'1312.6
2014-Nov-27 03:33N 55°39' W 006°41'1212.5
2014-Nov-27 02:33N 55°31' W 006°24'1110.5
2014-Nov-27 01:34N 55°26' W 006°08'9 8.8
2014-Nov-27 00:33N 55°20' W 005°57'8 7.5
2014-Nov-26 23:33N 55°13' W 005°50'26 8.7
2014-Nov-26 20:33N 54°49' W 005°35'9 9.3
2014-Nov-26 19:33N 54°42' W 005°45'7 0.3
2014-Nov-25 14:29N 54°37' W 005°55'0 0.0
2014-Nov-25 13:08N 54°37' W 005°55'0 0.0
2014-Nov-25 12:17N 54°37' W 005°55'0 0.0
2014-Nov-25 11:20N 54°37' W 005°55'0 0.0
2014-Nov-25 10:14N 54°37' W 005°55'0 0.0
2014-Nov-23 13:14N 54°37' W 005°55'0 0.0
2014-Nov-23 10:29N 54°37' W 005°55'6 6.3
2014-Nov-23 09:33N 54°41' W 005°48'1010.1
2014-Nov-23 08:33N 54°44' W 005°31'7 7.3
2014-Nov-23 07:33N 54°39' W 005°22'9 8.7
2014-Nov-23 06:33N 54°30' W 005°18'9 9.2
2014-Nov-23 05:33N 54°21' W 005°18'10 9.9
2014-Nov-23 04:33N 54°11' W 005°20'10710.6
2014-Nov-22 18:27N 52°25' W 005°41'1111.4
2014-Nov-22 17:29N 52°14' W 005°43'151 6.5
2014-Nov-21 18:17N 50°08' W 003°31'6 8.6
2014-Nov-21 17:33N 50°09' W 003°21'9 8.9
2014-Nov-21 16:33N 50°11' W 003°08'10 9.6
2014-Nov-21 15:33N 50°13' W 002°53'1310.6
2014-Nov-21 14:21N 50°14' W 002°33'9310.4
2014-Nov-21 05:25N 50°31' W 000°09'1110.4
2014-Nov-21 04:22N 50°34' E 000°07'911.5
2014-Nov-21 03:33N 50°36' E 000°21'1211.7
2014-Nov-21 02:33N 50°40' E 000°39'1111.3
2014-Nov-21 01:33N 50°47' E 000°53'1110.4
2014-Nov-21 00:28N 50°54' E 001°07'9 9.3
2014-Nov-20 23:33N 50°60' E 001°17'8 8.2
2014-Nov-20 22:33N 51°05' E 001°27'9 8.7
2014-Nov-20 21:33N 51°10' E 001°38'10 9.9
2014-Nov-20 20:33N 51°18' E 001°48'1211.9
2014-Nov-20 19:33N 51°28' E 001°59'1312.5
2014-Nov-20 18:33N 51°37' E 002°12'8310.1
2014-Nov-20 10:17N 52°32' E 003°54'810.7
2014-Nov-20 09:32N 52°31' E 004°07'1110.8
2014-Nov-20 08:33N 52°29' E 004°24'7 7.5
2014-Nov-20 07:34N 52°28' E 004°36'6 6.0
2014-Nov-20 06:33N 52°26' E 004°45'2 1.9
2014-Nov-20 05:31N 52°24' E 004°47'0 0.0
2014-Nov-20 04:31N 52°24' E 004°47'0 0.0
2014-Nov-20 03:31N 52°24' E 004°47'0 0.0
2014-Nov-20 02:31N 52°24' E 004°47'0 0.0
2014-Nov-20 01:31N 52°24' E 004°47'0 0.0
2014-Nov-20 00:31N 52°24' E 004°47'0 0.0
2014-Nov-19 23:31N 52°24' E 004°47'0 0.0
2014-Nov-19 22:31N 52°24' E 004°47'0 0.0
2014-Nov-19 21:31N 52°24' E 004°47'0 0.0
2014-Nov-19 20:31N 52°24' E 004°47'0 0.0
2014-Nov-19 19:31N 52°24' E 004°47'0 0.0
2014-Nov-19 18:31N 52°24' E 004°47'0 0.0
2014-Nov-19 17:31N 52°24' E 004°47'0 0.0
2014-Nov-19 16:31N 52°24' E 004°47'0 0.0
2014-Nov-19 15:31N 52°24' E 004°47'0 0.0
2014-Nov-19 14:31N 52°24' E 004°47'0 0.0
2014-Nov-19 13:31N 52°24' E 004°47'0 0.0
2014-Nov-19 12:31N 52°24' E 004°47'0 0.0
2014-Nov-19 11:31N 52°24' E 004°47'0 0.0
2014-Nov-19 10:31N 52°24' E 004°47'0 0.0
2014-Nov-19 09:31N 52°24' E 004°47'0 0.0
2014-Nov-19 08:31N 52°24' E 004°47'0 0.0
2014-Nov-19 07:31N 52°24' E 004°47'0 0.0
2014-Nov-19 06:31N 52°24' E 004°47'0 0.0
2014-Nov-19 05:31N 52°24' E 004°47'0 0.2
2014-Nov-19 04:31N 52°24' E 004°47'0 0.2
2014-Nov-19 03:28N 52°24' E 004°47'0 0.0
2014-Nov-19 02:31N 52°24' E 004°47'0 0.0
2014-Nov-19 01:31N 52°24' E 004°47'0 0.0
2014-Nov-19 00:31N 52°24' E 004°47'0 0.0
2014-Nov-18 23:31N 52°24' E 004°47'0 0.0
2014-Nov-18 22:32N 52°24' E 004°47'0 0.1
2014-Nov-18 21:33N 52°24' E 004°47'1 1.3
2014-Nov-18 20:33N 52°25' E 004°49'0 0.0
2014-Nov-18 19:33N 52°25' E 004°49'0 0.0
2014-Nov-18 18:33N 52°25' E 004°49'0 0.0
2014-Nov-18 17:33N 52°25' E 004°49'0 0.1
2014-Nov-18 16:33N 52°25' E 004°49'0 0.0
2014-Nov-18 15:33N 52°25' E 004°49'0 0.0
2014-Nov-18 14:33N 52°25' E 004°49'0 0.0
2014-Nov-18 13:33N 52°25' E 004°49'0 0.0
2014-Nov-18 12:33N 52°25' E 004°49'0 0.0
2014-Nov-18 11:33N 52°25' E 004°49'0 0.0
2014-Nov-18 10:33N 52°25' E 004°49'0 0.0
2014-Nov-18 09:30N 52°25' E 004°49'0 0.0
2014-Nov-18 08:33N 52°25' E 004°49'0 0.0
2014-Nov-18 07:33N 52°25' E 004°49'0 0.0
2014-Nov-18 06:33N 52°25' E 004°49'0 0.0
2014-Nov-18 05:33N 52°25' E 004°49'0 0.1
2014-Nov-18 04:29N 52°25' E 004°49'0 0.0
2014-Nov-18 03:32N 52°25' E 004°49'  
Track history (hours):
 
Tides and Currents Weather Stations Pressure Air Temp Water Temp Dewpoint Dewpoint Depression Visibility Wind Speed Wind Dir Waves Ship Positions

Wilson Cadiz

Last reported at 2014-Nov-28 03:31 UTC. Time now 2014-Nov-29 05:08 UTC.
Position N 59°22' W 003°42'.

Length 100 m; draft 5.6 m.

Type: Ship (hazmat cat B). MMSI: 314216000.

Date/timePositionNaut miles runAvg speedWind from/ knotsBaromVisibWave heightAir tempDewpointWater temp
2014-Nov-28 03:31N 59°22' W 003°42'1111.4
2014-Nov-28 02:34N 59°13' W 003°55'1111.3
2014-Nov-28 01:33N 59°05' W 004°10'1211.6
2014-Nov-28 00:33N 58°57' W 004°26'4812.1
2014-Nov-27 20:33N 58°22' W 005°29'1111.3
2014-Nov-27 19:34N 58°12' W 005°40'1211.1
2014-Nov-27 18:27N 58°01' W 005°52'136 9.8
2014-Nov-27 04:33N 55°49' W 006°54'1312.6
2014-Nov-27 03:33N 55°39' W 006°41'1212.5
2014-Nov-27 02:33N 55°31' W 006°24'1110.5
2014-Nov-27 01:34N 55°26' W 006°08'9 8.8
2014-Nov-27 00:33N 55°20' W 005°57'8 7.5
2014-Nov-26 23:33N 55°13' W 005°50'26 8.7
2014-Nov-26 20:33N 54°49' W 005°35'9 9.3
2014-Nov-26 19:33N 54°42' W 005°45'7 0.3
2014-Nov-25 14:29N 54°37' W 005°55'0 0.0
2014-Nov-25 13:08N 54°37' W 005°55'0 0.0
2014-Nov-25 12:17N 54°37' W 005°55'0 0.0
2014-Nov-25 11:20N 54°37' W 005°55'0 0.0
2014-Nov-25 10:14N 54°37' W 005°55'0 0.0
2014-Nov-23 13:14N 54°37' W 005°55'0 0.0
2014-Nov-23 10:29N 54°37' W 005°55'6 6.3
2014-Nov-23 09:33N 54°41' W 005°48'1010.1
2014-Nov-23 08:33N 54°44' W 005°31'7 7.3
2014-Nov-23 07:33N 54°39' W 005°22'9 8.7
2014-Nov-23 06:33N 54°30' W 005°18'9 9.2
2014-Nov-23 05:33N 54°21' W 005°18'10 9.9
2014-Nov-23 04:33N 54°11' W 005°20'10710.6
2014-Nov-22 18:27N 52°25' W 005°41'1111.4
2014-Nov-22 17:29N 52°14' W 005°43'151 6.5
2014-Nov-21 18:17N 50°08' W 003°31'6 8.6
2014-Nov-21 17:33N 50°09' W 003°21'9 8.9
2014-Nov-21 16:33N 50°11' W 003°08'10 9.6
2014-Nov-21 15:33N 50°13' W 002°53'1310.6
2014-Nov-21 14:21N 50°14' W 002°33'9310.4
2014-Nov-21 05:25N 50°31' W 000°09'1110.4
2014-Nov-21 04:22N 50°34' E 000°07'911.5
2014-Nov-21 03:33N 50°36' E 000°21'1211.7
2014-Nov-21 02:33N 50°40' E 000°39'1111.3
2014-Nov-21 01:33N 50°47' E 000°53'1110.4
2014-Nov-21 00:28N 50°54' E 001°07'9 9.3
2014-Nov-20 23:33N 50°60' E 001°17'8 8.2
2014-Nov-20 22:33N 51°05' E 001°27'9 8.7
2014-Nov-20 21:33N 51°10' E 001°38'10 9.9
2014-Nov-20 20:33N 51°18' E 001°48'1211.9
2014-Nov-20 19:33N 51°28' E 001°59'1312.5
2014-Nov-20 18:33N 51°37' E 002°12'8310.1
2014-Nov-20 10:17N 52°32' E 003°54'810.7
2014-Nov-20 09:32N 52°31' E 004°07'1110.8
2014-Nov-20 08:33N 52°29' E 004°24'7 7.5
2014-Nov-20 07:34N 52°28' E 004°36'6 6.0
2014-Nov-20 06:33N 52°26' E 004°45'2 1.9
2014-Nov-20 05:31N 52°24' E 004°47'0 0.0
2014-Nov-20 04:31N 52°24' E 004°47'0 0.0
2014-Nov-20 03:31N 52°24' E 004°47'0 0.0
2014-Nov-20 02:31N 52°24' E 004°47'0 0.0
2014-Nov-20 01:31N 52°24' E 004°47'0 0.0
2014-Nov-20 00:31N 52°24' E 004°47'0 0.0
2014-Nov-19 23:31N 52°24' E 004°47'0 0.0
2014-Nov-19 22:31N 52°24' E 004°47'0 0.0
2014-Nov-19 21:31N 52°24' E 004°47'0 0.0
2014-Nov-19 20:31N 52°24' E 004°47'0 0.0
2014-Nov-19 19:31N 52°24' E 004°47'0 0.0
2014-Nov-19 18:31N 52°24' E 004°47'0 0.0
2014-Nov-19 17:31N 52°24' E 004°47'0 0.0
2014-Nov-19 16:31N 52°24' E 004°47'0 0.0
2014-Nov-19 15:31N 52°24' E 004°47'0 0.0
2014-Nov-19 14:31N 52°24' E 004°47'0 0.0
2014-Nov-19 13:31N 52°24' E 004°47'0 0.0
2014-Nov-19 12:31N 52°24' E 004°47'0 0.0
2014-Nov-19 11:31N 52°24' E 004°47'0 0.0
2014-Nov-19 10:31N 52°24' E 004°47'0 0.0
2014-Nov-19 09:31N 52°24' E 004°47'0 0.0
2014-Nov-19 08:31N 52°24' E 004°47'0 0.0
2014-Nov-19 07:31N 52°24' E 004°47'0 0.0
2014-Nov-19 06:31N 52°24' E 004°47'0 0.0
2014-Nov-19 05:31N 52°24' E 004°47'0 0.2
2014-Nov-19 04:31N 52°24' E 004°47'0 0.2
2014-Nov-19 03:28N 52°24' E 004°47'0 0.0
2014-Nov-19 02:31N 52°24' E 004°47'0 0.0
2014-Nov-19 01:31N 52°24' E 004°47'0 0.0
2014-Nov-19 00:31N 52°24' E 004°47'0 0.0
2014-Nov-18 23:31N 52°24' E 004°47'0 0.0
2014-Nov-18 22:32N 52°24' E 004°47'0 0.1
2014-Nov-18 21:33N 52°24' E 004°47'1 1.3
2014-Nov-18 20:33N 52°25' E 004°49'0 0.0
2014-Nov-18 19:33N 52°25' E 004°49'0 0.0
2014-Nov-18 18:33N 52°25' E 004°49'0 0.0
2014-Nov-18 17:33N 52°25' E 004°49'0 0.1
2014-Nov-18 16:33N 52°25' E 004°49'0 0.0
2014-Nov-18 15:33N 52°25' E 004°49'0 0.0
2014-Nov-18 14:33N 52°25' E 004°49'0 0.0
2014-Nov-18 13:33N 52°25' E 004°49'0 0.0
2014-Nov-18 12:33N 52°25' E 004°49'0 0.0
2014-Nov-18 11:33N 52°25' E 004°49'0 0.0
2014-Nov-18 10:33N 52°25' E 004°49'0 0.0
2014-Nov-18 09:30N 52°25' E 004°49'0 0.0
2014-Nov-18 08:33N 52°25' E 004°49'0 0.0
2014-Nov-18 07:33N 52°25' E 004°49'0 0.0
2014-Nov-18 06:33N 52°25' E 004°49'0 0.0
2014-Nov-18 05:33N 52°25' E 004°49'0 0.1
2014-Nov-18 04:29N 52°25' E 004°49'0 0.0
2014-Nov-18 03:32N 52°25' E 004°49'  

Dump ship's entire track history